createdAt,value
2022-08-08T00:01:08.347Z,69.08
2022-08-08T00:03:37.553Z,68.77
2022-08-08T00:06:03.691Z,69.15
2022-08-08T00:08:24.878Z,68.97
2022-08-08T00:10:41.803Z,68.99
2022-08-08T00:12:56.393Z,69.03
2022-08-08T00:15:17.630Z,69.74
2022-08-08T00:18:03.789Z,70.34
2022-08-08T00:20:14.638Z,71.03
2022-08-08T00:22:24.959Z,72.75
2022-08-08T00:24:39.205Z,72.40
2022-08-08T00:26:50.418Z,71.91
2022-08-08T00:28:58.314Z,70.99
2022-08-08T00:32:28.374Z,70.25
2022-08-08T00:34:18.703Z,70.50
2022-08-08T00:36:14.878Z,69.22
2022-08-08T00:38:51.484Z,69.35
2022-08-08T00:41:15.216Z,69.65
2022-08-08T00:43:41.617Z,70.07
2022-08-08T00:46:32.052Z,70.17
2022-08-08T00:49:33.767Z,69.67
2022-08-08T00:52:19.831Z,69.62
2022-08-08T00:54:43.339Z,69.31
2022-08-08T00:57:29.492Z,69.88
2022-08-08T00:59:46.437Z,69.88
2022-08-08T01:03:57.405Z,69.75
2022-08-08T01:04:56.352Z,70.03
2022-08-08T01:07:17.654Z,70.24
2022-08-08T01:09:57.857Z,70.49
2022-08-08T01:12:17.535Z,70.53
2022-08-08T01:14:53.943Z,70.24
2022-08-08T01:16:52.759Z,69.77
2022-08-08T01:19:13.824Z,70.16
2022-08-08T01:22:11.908Z,70.19
2022-08-08T01:24:29.603Z,70.22
2022-08-08T01:26:59.423Z,70.46
2022-08-08T01:29:23.915Z,70.68
2022-08-08T01:32:13.741Z,72.41
2022-08-08T01:34:36.968Z,71.52
2022-08-08T01:37:21.870Z,71.39
2022-08-08T01:40:02.977Z,70.99
2022-08-08T01:42:14.957Z,71.08
2022-08-08T01:44:50.623Z,70.99
2022-08-08T01:48:15.001Z,70.38
2022-08-08T01:49:57.097Z,70.31
2022-08-08T01:52:49.974Z,70.39
2022-08-08T01:55:26.038Z,70.41
2022-08-08T01:58:04.174Z,70.37
2022-08-08T02:00:05.849Z,69.70
2022-08-08T02:02:26.722Z,70.04
2022-08-08T02:05:23.447Z,70.11
2022-08-08T02:07:36.966Z,68.45
2022-08-08T02:10:11.762Z,69.02
2022-08-08T02:12:23.628Z,70.00
2022-08-08T02:14:55.735Z,70.83
2022-08-08T02:17:03.731Z,69.98
2022-08-08T02:19:41.686Z,70.09
2022-08-08T02:22:17.110Z,70.39
2022-08-08T02:24:27.687Z,70.41
2022-08-08T02:26:41.687Z,70.26
2022-08-08T02:29:01.821Z,70.28
2022-08-08T02:31:59.588Z,70.03
2022-08-08T02:34:27.567Z,69.69
2022-08-08T02:37:53.553Z,70.01
2022-08-08T02:40:00.265Z,69.90
2022-08-08T02:42:38.461Z,70.56
2022-08-08T02:44:59.296Z,71.07
2022-08-08T02:47:19.721Z,71.43
2022-08-08T02:49:38.121Z,71.43
2022-08-08T02:52:32.482Z,72.99
2022-08-08T02:54:38.054Z,71.70
2022-08-08T02:57:12.033Z,71.73
2022-08-08T02:59:58.365Z,71.34
2022-08-08T03:02:44.069Z,70.81
2022-08-08T03:05:45.162Z,70.54
2022-08-08T03:08:12.730Z,70.41
2022-08-08T03:10:32.547Z,70.40
2022-08-08T03:15:54.192Z,70.24
2022-08-08T03:16:05.911Z,70.56
2022-08-08T03:18:30.803Z,70.63
2022-08-08T03:20:43.193Z,70.41
2022-08-08T03:22:57.171Z,70.26
2022-08-08T03:25:09.276Z,70.69
2022-08-08T03:27:21.832Z,70.52
2022-08-08T03:29:54.549Z,70.87
2022-08-08T03:32:16.608Z,70.52
2022-08-08T03:34:21.045Z,71.07
2022-08-08T03:36:27.631Z,71.36
2022-08-08T03:38:58.087Z,71.00
2022-08-08T03:40:55.226Z,70.90
2022-08-08T03:42:58.577Z,70.99
2022-08-08T03:46:03.143Z,71.15
2022-08-08T03:47:46.574Z,71.11
2022-08-08T03:49:58.796Z,70.94
2022-08-08T03:52:03.120Z,71.27
2022-08-08T03:54:04.888Z,71.46
2022-08-08T03:56:09.669Z,71.59
2022-08-08T03:58:35.547Z,71.75
2022-08-08T04:00:56.512Z,71.29
2022-08-08T04:03:11.606Z,71.83
2022-08-08T04:05:13.610Z,72.28
2022-08-08T04:07:21.325Z,72.58
2022-08-08T04:09:23.208Z,72.50
2022-08-08T04:11:25.641Z,72.60
2022-08-08T04:13:27.243Z,72.84
2022-08-08T04:15:38.614Z,72.79
2022-08-08T04:17:46.334Z,72.64
2022-08-08T04:20:01.997Z,72.35
2022-08-08T04:22:06.147Z,72.29
2022-08-08T04:24:18.993Z,72.61
2022-08-08T04:26:40.135Z,72.88
2022-08-08T04:28:54.614Z,72.92
2022-08-08T04:30:57.707Z,72.82
2022-08-08T04:32:59.281Z,73.07
2022-08-08T04:35:01.254Z,73.13
2022-08-08T04:37:03.950Z,72.99
2022-08-08T04:40:04.757Z,73.30
2022-08-08T04:41:36.544Z,73.02
2022-08-08T04:43:46.030Z,73.21
2022-08-08T04:45:50.862Z,72.71
2022-08-08T04:48:00.687Z,72.59
2022-08-08T04:50:04.963Z,72.43
2022-08-08T04:52:07.632Z,71.96
2022-08-08T04:54:38.561Z,71.56
2022-08-08T04:56:30.732Z,71.22
2022-08-08T04:58:33.349Z,70.92
2022-08-08T05:00:34.971Z,70.63
2022-08-08T05:02:37.216Z,71.04
2022-08-08T05:04:44.569Z,70.82
2022-08-08T05:06:48.146Z,70.74
2022-08-08T05:08:54.309Z,70.97
2022-08-08T05:10:57.335Z,71.46
2022-08-08T05:13:02.167Z,72.55
2022-08-08T05:15:05.291Z,73.45
2022-08-08T05:17:08.692Z,73.17
2022-08-08T05:20:10.984Z,73.65
2022-08-08T05:21:43.695Z,74.22
2022-08-08T05:24:04.193Z,74.16
2022-08-08T05:26:10.241Z,74.73
2022-08-08T05:28:16.005Z,74.98
2022-08-08T05:30:38.616Z,76.03
2022-08-08T05:32:48.745Z,76.69
2022-08-08T05:34:53.460Z,77.54
2022-08-08T05:36:56.610Z,77.90
2022-08-08T05:38:59.225Z,77.21
2022-08-08T05:41:03.621Z,76.40
2022-08-08T05:43:39.977Z,76.31
2022-08-08T05:45:41.494Z,76.94
2022-08-08T05:48:00.000Z,77.02
2022-08-08T05:50:06.939Z,78.42
2022-08-08T05:52:10.067Z,77.72
2022-08-08T05:54:27.593Z,77.61
2022-08-08T05:56:42.684Z,78.50
2022-08-08T05:59:03.521Z,78.12
2022-08-08T06:01:07.031Z,77.65
2022-08-08T06:03:23.574Z,77.47
2022-08-08T06:05:35.266Z,77.87
2022-08-08T06:07:44.001Z,78.22
2022-08-08T06:10:01.063Z,77.95
2022-08-08T06:12:04.960Z,78.33
2022-08-08T06:14:07.399Z,78.14
2022-08-08T06:16:14.779Z,78.07
2022-08-08T06:18:20.689Z,77.83
2022-08-08T06:20:25.867Z,77.83
2022-08-08T06:22:35.400Z,77.72
2022-08-08T06:24:37.113Z,77.41
2022-08-08T06:26:52.410Z,77.49
2022-08-08T06:29:02.808Z,74.53
2022-08-08T06:31:32.168Z,73.37
2022-08-08T06:34:26.260Z,72.91
2022-08-08T06:36:26.835Z,73.78
2022-08-08T06:38:35.088Z,75.29
2022-08-08T06:40:38.675Z,75.04
2022-08-08T06:42:53.498Z,75.66
2022-08-08T06:44:55.411Z,75.16
2022-08-08T06:46:58.538Z,75.09
2022-08-08T06:49:00.793Z,70.97
2022-08-08T06:51:07.699Z,73.74
2022-08-08T06:53:17.411Z,74.57
2022-08-08T06:55:22.645Z,74.97
2022-08-08T06:57:25.137Z,74.50
2022-08-08T06:59:41.961Z,74.13
2022-08-08T07:02:26.359Z,73.79
2022-08-08T07:04:41.375Z,72.90
2022-08-08T07:06:54.513Z,73.29
2022-08-08T07:09:03.090Z,73.26
2022-08-08T07:11:07.765Z,73.57
2022-08-08T07:13:11.005Z,73.01
2022-08-08T07:15:32.117Z,72.30
2022-08-08T07:18:02.152Z,72.22
2022-08-08T07:20:13.785Z,70.36
2022-08-08T07:22:23.472Z,67.67
2022-08-08T07:24:49.062Z,68.73
2022-08-08T07:26:53.564Z,69.55
2022-08-08T07:28:56.495Z,68.41
2022-08-08T07:30:59.225Z,69.95
2022-08-08T07:33:01.349Z,68.98
2022-08-08T07:35:06.463Z,69.09
2022-08-08T07:37:13.557Z,67.90
2022-08-08T07:39:19.055Z,68.50
2022-08-08T07:41:25.499Z,67.83
2022-08-08T07:43:35.106Z,69.06
2022-08-08T07:46:05.339Z,68.68
2022-08-08T07:48:03.093Z,67.86
2022-08-08T07:50:07.161Z,69.18
2022-08-08T07:52:13.278Z,70.26
2022-08-08T07:54:50.902Z,70.19
2022-08-08T07:57:01.762Z,70.36
2022-08-08T07:59:08.915Z,66.86
2022-08-08T08:01:20.249Z,67.23
2022-08-08T08:03:43.651Z,67.56
2022-08-08T08:05:51.712Z,67.69
2022-08-08T08:08:04.177Z,68.37
2022-08-08T08:10:08.301Z,68.42
2022-08-08T08:12:31.400Z,67.41
2022-08-08T08:14:58.320Z,68.19
2022-08-08T08:17:06.978Z,68.20
2022-08-08T08:19:12.739Z,66.63
2022-08-08T08:21:18.914Z,66.62
2022-08-08T08:23:22.757Z,65.22
2022-08-08T08:25:43.538Z,63.71
2022-08-08T08:27:48.214Z,63.41
2022-08-08T08:29:53.236Z,63.45
2022-08-08T08:31:57.738Z,64.68
2022-08-08T08:34:00.144Z,63.57
2022-08-08T08:36:18.826Z,63.33
2022-08-08T08:38:22.665Z,62.74
2022-08-08T08:40:25.616Z,63.64
2022-08-08T08:42:32.163Z,62.85
2022-08-08T08:44:38.452Z,62.42
2022-08-08T08:46:40.728Z,62.88
2022-08-08T08:48:49.664Z,63.31
2022-08-08T08:50:53.789Z,61.46
2022-08-08T08:52:59.552Z,61.81
2022-08-08T08:55:03.263Z,62.63
2022-08-08T08:57:15.563Z,62.77
2022-08-08T08:59:30.477Z,62.47
2022-08-08T09:01:45.355Z,61.69
2022-08-08T09:03:50.835Z,61.25
2022-08-08T09:05:56.178Z,61.37
2022-08-08T09:08:12.398Z,60.89
2022-08-08T09:10:23.113Z,60.62
2022-08-08T09:12:33.873Z,60.04
2022-08-08T09:14:43.097Z,59.89
2022-08-08T09:16:47.797Z,58.66
2022-08-08T09:18:51.661Z,58.83
2022-08-08T09:21:59.115Z,58.77
2022-08-08T09:23:17.400Z,59.85
2022-08-08T09:25:35.520Z,59.89
2022-08-08T09:27:58.188Z,59.84
2022-08-08T09:30:10.709Z,57.39
2022-08-08T09:32:36.002Z,55.50
2022-08-08T09:34:39.584Z,56.04
2022-08-08T09:36:51.897Z,55.23
2022-08-08T09:39:19.042Z,55.85
2022-08-08T09:41:33.563Z,57.77
2022-08-08T09:44:05.599Z,59.93
2022-08-08T09:46:16.704Z,59.42
2022-08-08T09:48:35.366Z,54.18
2022-08-08T09:50:43.944Z,51.93
2022-08-08T09:52:56.348Z,52.91
2022-08-08T09:55:01.097Z,53.77
2022-08-08T09:57:16.586Z,54.03
2022-08-08T10:00:01.855Z,53.59
2022-08-08T10:02:02.062Z,53.74
2022-08-08T10:04:35.447Z,54.15
2022-08-08T10:06:45.013Z,59.17
2022-08-08T10:08:49.021Z,57.94
2022-08-08T10:10:58.533Z,57.38
2022-08-08T10:13:06.046Z,53.99
2022-08-08T10:15:17.408Z,53.62
2022-08-08T10:17:56.900Z,51.92
2022-08-08T10:19:57.376Z,53.21
2022-08-08T10:22:01.395Z,52.45
2022-08-08T10:24:29.650Z,53.02
2022-08-08T10:26:52.044Z,53.71
2022-08-08T10:29:11.455Z,60.00
2022-08-08T10:31:47.473Z,59.48
2022-08-08T10:34:20.314Z,52.25
2022-08-08T10:36:22.315Z,51.38
2022-08-08T10:38:26.336Z,52.37
2022-08-08T10:40:32.408Z,53.00
2022-08-08T10:42:36.060Z,52.16
2022-08-08T10:44:41.996Z,52.45
2022-08-08T10:46:43.497Z,55.96
2022-08-08T10:48:57.043Z,49.91
2022-08-08T10:51:11.783Z,48.77
2022-08-08T10:53:16.230Z,47.55
2022-08-08T10:55:41.279Z,53.99
2022-08-08T10:57:50.776Z,51.17
2022-08-08T10:59:55.405Z,52.14
2022-08-08T11:01:57.050Z,52.89
2022-08-08T11:04:02.672Z,54.95
2022-08-08T11:06:07.312Z,52.96
2022-08-08T11:08:41.008Z,53.57
2022-08-08T11:10:43.681Z,53.77
2022-08-08T11:13:01.867Z,54.14
2022-08-08T11:15:16.788Z,55.47
2022-08-08T11:18:00.298Z,53.37
2022-08-08T11:19:52.748Z,55.27
2022-08-08T11:21:55.549Z,52.25
2022-08-08T11:24:02.360Z,53.66
2022-08-08T11:26:06.053Z,52.48
2022-08-08T11:28:09.446Z,53.72
2022-08-08T11:30:24.297Z,52.80
2022-08-08T11:32:33.085Z,53.46
2022-08-08T11:34:58.489Z,59.56
2022-08-08T11:37:04.472Z,51.76
2022-08-08T11:39:20.011Z,50.47
2022-08-08T11:41:28.182Z,50.00
2022-08-08T11:43:39.208Z,61.06
2022-08-08T11:46:08.996Z,59.18
2022-08-08T11:48:09.698Z,57.12
2022-08-08T11:50:23.456Z,48.80
2022-08-08T11:52:30.661Z,50.94
2022-08-08T11:54:44.664Z,57.69
2022-08-08T11:56:55.970Z,57.49
2022-08-08T11:59:07.781Z,50.42
2022-08-08T12:01:16.363Z,48.83
2022-08-08T12:03:30.741Z,50.35
2022-08-08T12:05:33.724Z,48.94
2022-08-08T12:07:44.717Z,48.96
2022-08-08T12:09:59.433Z,48.06
2022-08-08T12:12:03.191Z,50.12
2022-08-08T12:14:05.149Z,56.84
2022-08-08T12:16:13.202Z,51.67
2022-08-08T12:18:24.688Z,48.79
2022-08-08T12:20:37.389Z,49.02
2022-08-08T12:22:53.568Z,49.09
2022-08-08T12:24:56.570Z,49.72
2022-08-08T12:26:59.160Z,49.62
2022-08-08T12:29:00.845Z,52.53
2022-08-08T12:31:10.466Z,55.30
2022-08-08T12:33:37.504Z,49.69
2022-08-08T12:35:40.374Z,49.14
2022-08-08T12:38:03.129Z,49.46
2022-08-08T12:40:22.389Z,49.11
2022-08-08T12:42:33.945Z,52.49
2022-08-08T12:44:36.787Z,49.19
2022-08-08T12:46:40.742Z,47.46
2022-08-08T12:49:22.328Z,47.33
2022-08-08T12:51:19.890Z,52.44
2022-08-08T12:53:23.844Z,48.93
2022-08-08T12:55:35.741Z,50.94
2022-08-08T12:57:56.248Z,52.21
2022-08-08T13:00:05.852Z,53.50
2022-08-08T13:02:28.097Z,54.33
2022-08-08T13:04:35.030Z,53.98
2022-08-08T13:06:37.968Z,55.77
2022-08-08T13:08:53.747Z,55.77
2022-08-08T13:10:58.534Z,56.31
2022-08-08T13:13:06.007Z,61.17
2022-08-08T13:15:15.994Z,56.65
2022-08-08T13:18:07.929Z,54.81
2022-08-08T13:19:49.972Z,55.89
2022-08-08T13:22:04.979Z,56.59
2022-08-08T13:24:08.474Z,55.30
2022-08-08T13:26:20.674Z,57.65
2022-08-08T13:28:31.866Z,55.85
2022-08-08T13:30:34.220Z,55.04
2022-08-08T13:32:37.599Z,54.48
2022-08-08T13:34:41.379Z,55.78
2022-08-08T13:36:44.593Z,55.02
2022-08-08T13:38:46.297Z,55.16
2022-08-08T13:40:48.428Z,56.00
2022-08-08T13:42:53.191Z,53.85
2022-08-08T13:44:56.431Z,54.62
2022-08-08T13:47:00.678Z,53.52
2022-08-08T13:50:33.466Z,52.76
2022-08-08T13:51:37.432Z,52.98
2022-08-08T13:53:41.146Z,53.32
2022-08-08T13:56:05.743Z,54.32
2022-08-08T13:58:09.509Z,51.84
2022-08-08T14:00:21.220Z,54.86
2022-08-08T14:02:31.009Z,52.16
2022-08-08T14:04:35.277Z,52.44
2022-08-08T14:06:45.417Z,58.37
2022-08-08T14:08:48.533Z,54.27
2022-08-08T14:10:51.517Z,49.75
2022-08-08T14:12:54.165Z,57.21
2022-08-08T14:14:56.142Z,60.06
2022-08-08T14:17:03.243Z,52.48
2022-08-08T14:19:10.495Z,56.79
2022-08-08T14:21:15.020Z,49.89
2022-08-08T14:24:07.544Z,49.31
2022-08-08T14:25:47.227Z,49.84
2022-08-08T14:27:59.771Z,54.96
2022-08-08T14:30:18.011Z,60.51
2022-08-08T14:32:27.679Z,49.55
2022-08-08T14:34:32.482Z,50.92
2022-08-08T14:36:36.103Z,47.77
2022-08-08T14:38:51.906Z,48.67
2022-08-08T14:40:59.334Z,58.72
2022-08-08T14:43:31.453Z,59.14
2022-08-08T14:45:46.859Z,59.53
2022-08-08T14:47:57.374Z,50.70
2022-08-08T14:50:14.166Z,58.78
2022-08-08T14:52:17.821Z,50.54
2022-08-08T14:54:29.429Z,50.50
2022-08-08T14:56:31.244Z,57.67
2022-08-08T14:58:34.067Z,50.96
2022-08-08T15:00:35.719Z,50.82
2022-08-08T15:02:58.248Z,55.36
2022-08-08T15:05:10.518Z,55.82
2022-08-08T15:07:21.441Z,52.26
2022-08-08T15:09:24.697Z,50.77
2022-08-08T15:11:26.576Z,49.77
2022-08-08T15:13:35.013Z,49.29
2022-08-08T15:16:02.638Z,48.08
2022-08-08T15:18:04.117Z,49.30
2022-08-08T15:20:08.407Z,50.32
2022-08-08T15:22:14.539Z,49.01
2022-08-08T15:24:31.158Z,50.03
2022-08-08T15:26:33.571Z,49.20
2022-08-08T15:28:35.233Z,58.85
2022-08-08T15:30:36.776Z,58.62
2022-08-08T15:32:38.796Z,49.08
2022-08-08T15:34:40.600Z,56.37
2022-08-08T15:36:45.048Z,57.70
2022-08-08T15:38:50.557Z,57.23
2022-08-08T15:40:52.484Z,57.13
2022-08-08T15:42:54.062Z,57.12
2022-08-08T15:44:55.570Z,56.08
2022-08-08T15:46:57.822Z,49.95
2022-08-08T15:49:00.143Z,54.31
2022-08-08T15:51:01.643Z,57.66
2022-08-08T15:53:04.527Z,56.89
2022-08-08T15:55:09.168Z,51.10
2022-08-08T15:57:13.124Z,51.29
2022-08-08T15:59:14.783Z,52.01
2022-08-08T16:01:18.465Z,52.35
2022-08-08T16:03:22.786Z,58.69
2022-08-08T16:05:24.749Z,56.19
2022-08-08T16:07:51.577Z,53.28
2022-08-08T16:13:20.430Z,57.03
2022-08-08T16:13:28.723Z,52.75
2022-08-08T16:14:38.004Z,53.23
2022-08-08T16:16:40.728Z,54.61
2022-08-08T16:18:57.432Z,54.30
2022-08-08T16:21:00.296Z,59.95
2022-08-08T16:23:05.417Z,59.76
2022-08-08T16:25:12.845Z,59.68
2022-08-08T16:27:18.022Z,59.53
2022-08-08T16:29:23.762Z,58.88
2022-08-08T16:31:48.476Z,60.07
2022-08-08T16:33:59.153Z,59.84
2022-08-08T16:36:01.061Z,59.96
2022-08-08T16:38:02.955Z,58.55
2022-08-08T16:40:07.205Z,59.82
2022-08-08T16:42:17.908Z,60.16
2022-08-08T16:44:27.665Z,59.74
2022-08-08T16:46:43.423Z,57.06
2022-08-08T16:48:47.349Z,55.34
2022-08-08T16:50:48.930Z,54.54
2022-08-08T16:55:22.979Z,58.13
2022-08-08T16:55:25.054Z,59.92
2022-08-08T16:58:14.304Z,53.40
2022-08-08T16:59:55.161Z,54.56
2022-08-08T17:01:59.576Z,56.70
2022-08-08T17:04:03.672Z,54.58
2022-08-08T17:06:05.556Z,58.39
2022-08-08T17:08:07.079Z,59.38
2022-08-08T17:10:11.544Z,60.65
2022-08-08T17:12:21.679Z,59.88
2022-08-08T17:14:33.929Z,60.40
2022-08-08T17:16:35.968Z,60.37
2022-08-08T17:18:37.741Z,60.59
2022-08-08T17:20:40.432Z,58.21
2022-08-08T17:22:42.701Z,60.43
2022-08-08T17:24:53.781Z,60.19
2022-08-08T17:26:57.945Z,60.28
2022-08-08T17:29:04.203Z,60.33
2022-08-08T17:31:39.585Z,60.44
2022-08-08T17:34:36.933Z,60.25
2022-08-08T17:35:53.408Z,60.10
2022-08-08T17:37:56.448Z,60.30
2022-08-08T17:40:10.742Z,60.43
2022-08-08T17:42:16.120Z,60.20
2022-08-08T17:44:19.567Z,60.14
2022-08-08T17:46:37.752Z,60.62
2022-08-08T17:48:39.215Z,56.86
2022-08-08T17:50:42.090Z,59.03
2022-08-08T17:52:47.617Z,60.57
2022-08-08T17:54:51.907Z,58.67
2022-08-08T17:56:58.752Z,57.33
2022-08-08T17:59:00.468Z,59.92
2022-08-08T18:01:07.685Z,57.89
2022-08-08T18:03:13.366Z,58.32
2022-08-08T18:05:23.114Z,61.52
2022-08-08T18:08:02.845Z,58.84
2022-08-08T18:09:46.863Z,59.37
2022-08-08T18:11:49.165Z,59.95
2022-08-08T18:13:52.667Z,59.93
2022-08-08T18:16:04.447Z,59.86
2022-08-08T18:18:27.702Z,61.78
2022-08-08T18:20:43.527Z,61.06
2022-08-08T18:22:51.501Z,63.11
2022-08-08T18:24:53.095Z,62.68
2022-08-08T18:26:58.449Z,63.04
2022-08-08T18:29:00.582Z,63.01
2022-08-08T18:31:06.637Z,62.92
2022-08-08T18:33:10.688Z,62.59
2022-08-08T18:35:34.127Z,62.79
2022-08-08T18:37:49.062Z,63.02
2022-08-08T18:39:51.732Z,63.13
2022-08-08T18:42:03.298Z,62.76
2022-08-08T18:44:05.441Z,62.94
2022-08-08T18:46:54.983Z,62.78
2022-08-08T18:48:29.437Z,62.35
2022-08-08T18:50:31.072Z,63.07
2022-08-08T18:52:34.756Z,63.25
2022-08-08T18:54:38.228Z,63.00
2022-08-08T18:56:43.180Z,62.85
2022-08-08T18:58:45.076Z,63.08
2022-08-08T19:00:50.209Z,63.40
2022-08-08T19:02:55.576Z,63.49
2022-08-08T19:04:58.905Z,63.52
2022-08-08T19:07:00.446Z,63.70
2022-08-08T19:09:02.812Z,63.61
2022-08-08T19:11:17.452Z,63.99
2022-08-08T19:13:25.330Z,64.00
2022-08-08T19:15:40.600Z,64.42
2022-08-08T19:17:47.593Z,64.49
2022-08-08T19:20:02.746Z,64.48
2022-08-08T19:22:04.681Z,64.70
2022-08-08T19:24:07.890Z,65.23
2022-08-08T19:26:29.473Z,65.07
2022-08-08T19:28:32.523Z,65.49
2022-08-08T19:30:39.243Z,65.13
2022-08-08T19:32:52.925Z,65.47
2022-08-08T19:34:55.184Z,65.34
2022-08-08T19:36:59.300Z,65.45
2022-08-08T19:39:00.900Z,65.43
2022-08-08T19:41:03.606Z,65.40
2022-08-08T19:43:11.672Z,65.27
2022-08-08T19:45:14.305Z,65.60
2022-08-08T19:47:36.169Z,65.55
2022-08-08T19:49:43.128Z,65.71
2022-08-08T19:51:45.599Z,66.43
2022-08-08T19:53:53.358Z,66.38
2022-08-08T19:55:55.897Z,66.66
2022-08-08T19:57:57.921Z,66.61
2022-08-08T19:59:59.915Z,66.70
2022-08-08T20:02:04.551Z,66.95
2022-08-08T20:04:06.472Z,67.13
2022-08-08T20:06:13.735Z,67.36
2022-08-08T20:08:30.022Z,67.58
2022-08-08T20:10:33.826Z,67.61
2022-08-08T20:12:39.952Z,67.78
2022-08-08T20:15:01.026Z,67.77
2022-08-08T20:17:04.454Z,67.81
2022-08-08T20:19:06.416Z,67.64
2022-08-08T20:21:10.797Z,67.49
2022-08-08T20:23:15.997Z,67.31
2022-08-08T20:25:20.658Z,67.25
2022-08-08T20:27:22.447Z,67.38
2022-08-08T20:29:24.233Z,67.15
2022-08-08T20:32:02.504Z,67.49
2022-08-08T20:34:29.944Z,67.91
2022-08-08T20:36:28.915Z,67.24
2022-08-08T20:38:32.860Z,67.72
2022-08-08T20:40:38.964Z,67.78
2022-08-08T20:42:41.065Z,67.83
2022-08-08T20:44:45.315Z,67.69
2022-08-08T20:46:49.193Z,67.47
2022-08-08T20:48:51.559Z,67.57
2022-08-08T20:50:53.367Z,67.77
2022-08-08T20:52:56.873Z,67.70
2022-08-08T20:54:58.580Z,67.76
2022-08-08T20:57:16.203Z,68.41
2022-08-08T20:59:21.176Z,67.98
2022-08-08T21:01:26.489Z,68.29
2022-08-08T21:03:33.416Z,67.83
2022-08-08T21:05:58.922Z,67.62
2022-08-08T21:08:36.737Z,67.74
2022-08-08T21:10:28.340Z,67.71
2022-08-08T21:12:35.552Z,67.81
2022-08-08T21:14:37.102Z,67.88
2022-08-08T21:16:38.598Z,67.98
2022-08-08T21:18:40.377Z,67.73
2022-08-08T21:20:49.160Z,67.98
2022-08-08T21:22:52.477Z,67.99
2022-08-08T21:24:54.685Z,67.75
2022-08-08T21:26:57.149Z,68.17
2022-08-08T21:29:02.334Z,67.95
2022-08-08T21:31:23.048Z,68.11
2022-08-08T21:33:26.186Z,67.93
2022-08-08T21:36:14.504Z,67.93
2022-08-08T21:37:53.727Z,67.50
2022-08-08T21:39:57.354Z,68.20
2022-08-08T21:42:01.710Z,67.92
2022-08-08T21:44:03.427Z,68.32
2022-08-08T21:48:08.618Z,67.99
2022-08-08T21:48:35.199Z,67.84
2022-08-08T21:50:43.198Z,67.76
2022-08-08T21:54:27.271Z,67.65
2022-08-08T21:56:13.018Z,68.08
2022-08-08T21:57:28.919Z,67.67
2022-08-08T22:00:03.528Z,68.55
2022-08-08T22:02:05.546Z,68.54
2022-08-08T22:04:12.324Z,68.64
2022-08-08T22:06:13.808Z,69.92
2022-08-08T22:08:37.314Z,68.93
2022-08-08T22:10:43.548Z,68.40
2022-08-08T22:12:46.937Z,67.96
2022-08-08T22:14:50.064Z,68.57
2022-08-08T22:16:53.601Z,68.21
2022-08-08T22:18:55.225Z,68.74
2022-08-08T22:21:14.202Z,68.55
2022-08-08T22:23:17.737Z,67.99
2022-08-08T22:25:24.699Z,68.33
2022-08-08T22:27:38.438Z,68.66
2022-08-08T22:29:59.126Z,68.58
2022-08-08T22:32:05.086Z,68.78
2022-08-08T22:34:13.911Z,68.54
2022-08-08T22:36:17.568Z,68.55
2022-08-08T22:38:33.994Z,68.33
2022-08-08T22:40:37.939Z,68.15
2022-08-08T22:42:40.322Z,68.50
2022-08-08T22:44:42.365Z,68.43
2022-08-08T22:46:45.018Z,68.77
2022-08-08T22:48:50.217Z,68.46
2022-08-08T22:50:55.964Z,67.09
2022-08-08T22:54:30.809Z,67.72
2022-08-08T22:55:21.996Z,67.83
2022-08-08T22:57:24.828Z,68.00
2022-08-08T22:59:26.518Z,68.38
2022-08-08T23:02:03.968Z,68.45
2022-08-08T23:03:59.446Z,68.13
2022-08-08T23:06:01.904Z,68.03
2022-08-08T23:08:03.614Z,68.02
2022-08-08T23:10:07.455Z,68.32
2022-08-08T23:12:27.965Z,68.08
2022-08-08T23:14:31.261Z,68.39
2022-08-08T23:16:37.965Z,68.61
2022-08-08T23:18:44.183Z,68.62
2022-08-08T23:20:54.939Z,68.82
2022-08-08T23:22:57.259Z,68.63
2022-08-08T23:24:58.823Z,68.61
2022-08-08T23:27:00.372Z,68.62
2022-08-08T23:29:02.159Z,68.36
2022-08-08T23:31:03.688Z,68.00
2022-08-08T23:33:05.732Z,68.10
2022-08-08T23:35:17.389Z,68.31
2022-08-08T23:37:24.392Z,68.14
2022-08-08T23:39:31.843Z,68.07
2022-08-08T23:41:45.939Z,67.76
2022-08-08T23:43:50.773Z,67.70
2022-08-08T23:49:00.671Z,67.70
2022-08-08T23:49:03.019Z,67.63
2022-08-08T23:50:38.843Z,67.60
2022-08-08T23:52:41.491Z,67.68
2022-08-08T23:55:00.072Z,67.58
2022-08-08T23:57:25.541Z,67.82
2022-08-08T23:59:29.483Z,67.74
